Time;durP1;ratioP1;P1;durP2;ratioP2;P2;SDS_P1;SDS_P2;PMS_P1;PMS_P2;Temp;Humidity;BMP_temperature;BMP_pressure;BME280_temperature;BME280_humidity;BME280_pressure;Samples;Min_cycle;Max_cycle;Signal;HPM_P1;HPM_P2
2021/10/15 00:00:04;;;;;;;3.63;2.90;;;12.30;99.90;;;;;;5072284;28;20949;-69
2021/10/15 00:02:40;;;;;;;4.07;2.30;;;12.30;99.90;;;;;;5072034;28;20411;-68
2021/10/15 00:05:09;;;;;;;2.13;1.90;;;12.30;99.90;;;;;;5071801;28;20801;-67
2021/10/15 00:07:38;;;;;;;4.40;4.10;;;12.20;99.90;;;;;;5071832;28;20460;-67
2021/10/15 00:10:08;;;;;;;1.97;1.63;;;12.30;99.90;;;;;;5071657;28;20393;-68
2021/10/15 00:12:36;;;;;;;2.63;2.43;;;12.30;99.90;;;;;;5053329;28;20436;-69
2021/10/15 00:15:05;;;;;;;2.90;2.70;;;12.30;99.90;;;;;;5071332;28;20393;-68
2021/10/15 00:17:33;;;;;;;1.83;1.73;;;12.30;99.90;;;;;;5071621;28;20488;-68
2021/10/15 00:20:03;;;;;;;4.50;2.73;;;12.30;99.90;;;;;;5071105;28;20890;-68
2021/10/15 00:22:32;;;;;;;3.00;1.77;;;12.30;99.90;;;;;;5070999;28;20421;-68
2021/10/15 00:25:00;;;;;;;2.23;2.03;;;12.30;99.90;;;;;;5071166;28;20438;-68
2021/10/15 00:27:28;;;;;;;3.00;2.80;;;12.30;99.90;;;;;;5071121;28;20422;-68
2021/10/15 00:29:57;;;;;;;4.53;4.20;;;12.40;99.90;;;;;;5071113;28;20418;-69
2021/10/15 00:32:25;;;;;;;3.10;1.80;;;12.40;99.90;;;;;;5070905;28;20457;-68
2021/10/15 00:34:53;;;;;;;4.40;3.60;;;12.40;99.90;;;;;;5071054;28;20429;-68
2021/10/15 00:37:23;;;;;;;2.60;2.40;;;12.40;99.90;;;;;;5071276;28;21046;-68
2021/10/15 00:39:51;;;;;;;5.77;3.63;;;12.40;99.90;;;;;;5071102;28;20427;-68
2021/10/15 00:42:19;;;;;;;2.67;1.97;;;12.40;99.90;;;;;;5070642;28;20912;-68
2021/10/15 00:44:47;;;;;;;3.53;2.57;;;12.40;99.90;;;;;;5070569;28;20393;-68
2021/10/15 00:47:16;;;;;;;1.60;1.10;;;12.40;99.90;;;;;;5071206;28;20958;-68
2021/10/15 00:49:44;;;;;;;3.53;2.80;;;12.40;99.90;;;;;;5071397;28;20411;-69
2021/10/15 00:52:12;;;;;;;1.97;1.77;;;12.40;99.90;;;;;;5073886;28;20442;-68
2021/10/15 00:54:44;;;;;;;6.47;2.40;;;12.30;99.90;;;;;;5075029;28;20437;-69
2021/10/15 00:57:15;;;;;;;2.30;2.07;;;12.40;99.90;;;;;;5075096;28;20436;-67
2021/10/15 00:59:43;;;;;;;2.33;1.80;;;12.40;99.90;;;;;;5075125;28;20393;-67
2021/10/15 01:02:12;;;;;;;4.40;2.90;;;12.30;99.90;;;;;;5074672;28;20462;-68
2021/10/15 01:04:41;;;;;;;2.70;1.53;;;12.30;99.90;;;;;;5074800;28;20777;-69
2021/10/15 01:07:09;;;;;;;2.93;2.70;;;12.30;99.90;;;;;;5075120;28;20444;-67
2021/10/15 01:09:38;;;;;;;5.27;1.87;;;12.30;99.90;;;;;;5075415;28;20609;-67
2021/10/15 01:12:08;;;;;;;3.87;1.93;;;12.30;99.90;;;;;;5075049;28;20447;-67
2021/10/15 01:14:36;;;;;;;2.37;2.17;;;12.20;99.90;;;;;;5074858;28;20467;-67
2021/10/15 01:17:05;;;;;;;1.00;0.60;;;12.20;99.90;;;;;;5075036;28;20457;-67
2021/10/15 01:19:34;;;;;;;2.83;1.63;;;12.30;99.90;;;;;;5074724;28;20776;-67
2021/10/15 01:22:05;;;;;;;1.87;1.70;;;12.30;99.90;;;;;;5074475;28;20496;-68
2021/10/15 01:24:34;;;;;;;1.93;1.30;;;12.30;99.90;;;;;;5074739;28;20634;-67
2021/10/15 01:27:07;;;;;;;1.50;1.37;;;12.20;99.90;;;;;;5074569;28;20432;-67
2021/10/15 01:29:36;;;;;;;1.67;1.03;;;12.20;99.90;;;;;;5074867;28;20403;-68
2021/10/15 01:32:07;;;;;;;3.53;2.83;;;12.10;99.90;;;;;;5074160;28;20442;-67
2021/10/15 01:34:36;;;;;;;1.40;1.17;;;12.20;99.90;;;;;;5074419;28;20385;-68
2021/10/15 01:37:06;;;;;;;1.63;1.53;;;12.20;99.90;;;;;;5074757;28;20814;-67
2021/10/15 01:39:34;;;;;;;2.37;2.07;;;12.20;99.90;;;;;;5074473;28;20419;-68
2021/10/15 01:42:03;;;;;;;1.70;1.20;;;12.20;99.90;;;;;;5074323;28;21054;-67
2021/10/15 01:44:31;;;;;;;2.50;2.20;;;12.10;99.90;;;;;;5074529;28;20421;-67
2021/10/15 01:46:59;;;;;;;4.03;2.83;;;12.20;99.90;;;;;;5074528;28;20397;-68
2021/10/15 01:49:27;;;;;;;2.60;1.77;;;12.20;99.90;;;;;;5074334;28;20385;-67
2021/10/15 01:51:55;;;;;;;3.57;1.10;;;12.30;99.90;;;;;;5074222;28;20492;-68
2021/10/15 01:54:24;;;;;;;1.53;1.43;;;12.20;99.90;;;;;;5073886;28;20404;-68
2021/10/15 01:56:53;;;;;;;3.77;1.70;;;12.20;99.90;;;;;;5074389;28;20401;-68
2021/10/15 01:59:21;;;;;;;2.50;2.30;;;12.20;99.90;;;;;;5073688;28;20465;-68
2021/10/15 02:01:49;;;;;;;3.83;3.53;;;12.10;99.90;;;;;;5072891;28;20409;-68
2021/10/15 02:04:17;;;;;;;2.93;2.50;;;12.10;99.90;;;;;;5073652;28;20407;-68
2021/10/15 02:06:45;;;;;;;3.73;1.23;;;12.10;99.90;;;;;;5073714;28;20806;-68
2021/10/15 02:09:13;;;;;;;4.03;2.63;;;12.00;99.90;;;;;;5073730;28;20416;-67
2021/10/15 02:11:45;;;;;;;2.70;1.43;;;12.00;99.90;;;;;;5073509;28;20462;-66
2021/10/15 02:14:13;;;;;;;2.40;1.67;;;12.10;99.90;;;;;;5073213;28;20525;-68
2021/10/15 02:16:41;;;;;;;2.97;2.03;;;12.00;99.90;;;;;;5073533;28;20925;-67
2021/10/15 02:19:09;;;;;;;2.10;1.30;;;12.10;99.90;;;;;;5073359;28;20505;-69
2021/10/15 02:21:37;;;;;;;2.30;1.47;;;12.00;99.90;;;;;;5073249;28;20421;-70
2021/10/15 02:24:06;;;;;;;2.70;2.20;;;12.00;99.90;;;;;;5073350;28;20934;-67
2021/10/15 02:26:34;;;;;;;1.23;1.13;;;12.00;99.90;;;;;;5073257;28;20505;-67
2021/10/15 02:29:03;;;;;;;3.43;1.97;;;11.90;99.90;;;;;;5073085;28;20418;-69
2021/10/15 02:31:31;;;;;;;1.70;1.23;;;11.90;99.90;;;;;;5073466;28;20958;-67
2021/10/15 02:34:00;;;;;;;1.83;1.60;;;11.90;99.90;;;;;;5073080;28;20490;-68
2021/10/15 02:36:28;;;;;;;1.87;1.70;;;11.90;99.90;;;;;;5073330;28;20411;-68
2021/10/15 02:38:56;;;;;;;1.20;1.10;;;11.90;99.90;;;;;;5073215;28;20458;-68
2021/10/15 02:41:24;;;;;;;1.83;1.63;;;11.80;99.90;;;;;;5073338;28;20438;-68
2021/10/15 02:43:53;;;;;;;2.70;1.33;;;11.80;99.90;;;;;;5072868;28;20546;-68
2021/10/15 02:46:23;;;;;;;2.63;2.43;;;11.80;99.90;;;;;;5072989;28;20476;-68
2021/10/15 02:48:51;;;;;;;2.13;1.70;;;11.80;99.90;;;;;;5073064;28;20393;-68
2021/10/15 02:51:19;;;;;;;1.47;1.37;;;11.80;99.90;;;;;;5072781;28;20449;-68
2021/10/15 02:53:47;;;;;;;4.33;2.47;;;11.70;99.90;;;;;;5072605;28;20419;-68
2021/10/15 02:56:15;;;;;;;1.43;1.23;;;11.70;99.90;;;;;;5072906;28;20407;-68
2021/10/15 02:58:43;;;;;;;2.50;1.90;;;11.70;99.90;;;;;;5072712;28;20474;-68
2021/10/15 03:01:12;;;;;;;1.20;1.00;;;11.70;99.90;;;;;;5073058;28;20419;-68
2021/10/15 03:03:41;;;;;;;1.30;1.20;;;11.70;99.90;;;;;;5072587;28;20429;-67
2021/10/15 03:06:11;;;;;;;2.33;1.73;;;11.70;99.90;;;;;;5072867;28;20415;-67
2021/10/15 03:08:39;;;;;;;2.20;1.37;;;11.70;99.90;;;;;;5072818;28;20408;-67
2021/10/15 03:11:07;;;;;;;1.10;0.80;;;11.70;99.90;;;;;;5054470;28;20445;-68
2021/10/15 03:13:36;;;;;;;2.40;2.20;;;11.70;99.90;;;;;;5071533;28;20429;-68
2021/10/15 03:16:04;;;;;;;2.77;2.57;;;11.80;99.90;;;;;;5072665;28;20552;-68
2021/10/15 03:18:32;;;;;;;1.07;0.80;;;11.80;99.90;;;;;;5072616;28;20432;-68
2021/10/15 03:21:02;;;;;;;3.27;3.00;;;11.80;99.90;;;;;;5072378;28;20429;-68
2021/10/15 03:23:30;;;;;;;1.67;1.33;;;11.80;99.90;;;;;;5072238;28;20422;-68
2021/10/15 03:25:58;;;;;;;2.43;2.23;;;11.80;99.90;;;;;;5072378;28;20410;-67
2021/10/15 03:28:26;;;;;;;2.03;1.37;;;11.70;99.90;;;;;;5072392;28;20418;-68
2021/10/15 03:30:54;;;;;;;1.37;0.60;;;11.80;99.90;;;;;;5072533;28;20377;-68
2021/10/15 03:33:23;;;;;;;1.70;1.50;;;11.90;99.90;;;;;;5072063;28;20779;-68
2021/10/15 03:35:51;;;;;;;2.60;2.00;;;11.90;99.90;;;;;;5072583;28;20412;-68
2021/10/15 03:38:20;;;;;;;2.90;2.70;;;11.90;99.90;;;;;;5072729;28;20450;-68
2021/10/15 03:40:49;;;;;;;1.23;1.13;;;11.90;99.90;;;;;;5073195;28;20426;-68
2021/10/15 03:43:17;;;;;;;1.53;1.10;;;11.90;99.90;;;;;;5073621;28;20420;-68
2021/10/15 03:45:45;;;;;;;0.80;0.50;;;12.00;99.90;;;;;;5073808;28;20775;-68
2021/10/15 03:48:13;;;;;;;1.30;1.00;;;12.00;99.90;;;;;;5074620;28;20891;-68
2021/10/15 03:50:42;;;;;;;1.77;1.67;;;12.00;99.90;;;;;;5074498;28;20377;-67
2021/10/15 03:53:10;;;;;;;1.17;1.07;;;12.00;99.90;;;;;;5075917;28;20442;-68
2021/10/15 03:55:39;;;;;;;2.50;2.30;;;12.00;99.90;;;;;;5075540;28;20431;-67
2021/10/15 03:58:08;;;;;;;1.90;1.80;;;12.00;99.90;;;;;;5075345;28;20417;-68
2021/10/15 04:00:37;;;;;;;1.43;0.97;;;12.00;99.90;;;;;;5071393;28;20522;-68
2021/10/15 04:03:05;;;;;;;3.33;1.50;;;11.90;99.90;;;;;;5071238;28;20969;-67
2021/10/15 04:05:33;;;;;;;1.43;1.13;;;11.90;99.90;;;;;;5071392;28;20484;-67
2021/10/15 04:08:01;;;;;;;2.40;1.80;;;11.90;99.90;;;;;;5071258;28;20454;-68
2021/10/15 04:10:29;;;;;;;0.80;0.60;;;11.80;99.90;;;;;;5071066;28;20895;-67
2021/10/15 04:12:59;;;;;;;2.60;1.37;;;11.90;99.90;;;;;;5071053;28;20799;-68
2021/10/15 04:15:27;;;;;;;1.37;1.27;;;11.90;99.90;;;;;;5071390;28;20426;-67
2021/10/15 04:17:55;;;;;;;2.40;1.37;;;11.90;99.90;;;;;;5071771;28;20423;-67
2021/10/15 04:20:23;;;;;;;1.00;0.87;;;11.90;99.90;;;;;;5071307;28;20470;-67
2021/10/15 04:22:51;;;;;;;2.40;2.07;;;11.90;99.90;;;;;;5071105;28;20438;-67
2021/10/15 04:25:19;;;;;;;0.90;0.60;;;11.90;99.90;;;;;;5071267;28;20454;-67
2021/10/15 04:27:48;;;;;;;1.50;1.00;;;11.90;99.90;;;;;;5071680;28;20419;-67
2021/10/15 04:30:17;;;;;;;2.70;1.23;;;11.90;99.90;;;;;;5071249;28;20419;-67
2021/10/15 04:32:45;;;;;;;1.67;1.00;;;11.90;99.90;;;;;;5070889;28;20416;-67
2021/10/15 04:35:13;;;;;;;0.90;0.60;;;11.80;99.90;;;;;;5071324;28;20416;-68
2021/10/15 04:37:41;;;;;;;1.87;1.63;;;11.80;99.90;;;;;;5071483;28;20433;-68
2021/10/15 04:40:10;;;;;;;1.67;1.23;;;11.80;99.90;;;;;;5071077;28;20454;-67
2021/10/15 04:42:39;;;;;;;2.53;1.37;;;11.80;99.90;;;;;;5070927;28;20447;-69
2021/10/15 04:45:08;;;;;;;1.93;0.80;;;11.80;99.90;;;;;;5071097;28;20513;-68
2021/10/15 04:47:38;;;;;;;1.00;0.67;;;11.70;99.90;;;;;;5070942;28;20401;-68
2021/10/15 04:50:07;;;;;;;4.17;1.80;;;11.70;99.90;;;;;;5071059;28;20381;-67
2021/10/15 04:52:35;;;;;;;1.73;1.63;;;11.70;99.90;;;;;;5070524;28;20455;-68
2021/10/15 04:55:05;;;;;;;1.03;0.93;;;11.80;99.90;;;;;;5052977;28;20874;-68
2021/10/15 04:57:33;;;;;;;0.90;0.60;;;11.80;99.90;;;;;;5070898;28;20444;-68
2021/10/15 05:00:03;;;;;;;2.30;1.43;;;11.80;99.90;;;;;;5070765;28;20986;-67
2021/10/15 05:02:32;;;;;;;0.93;0.70;;;11.80;99.90;;;;;;5070592;28;20943;-68
2021/10/15 05:05:02;;;;;;;1.10;0.80;;;11.80;99.90;;;;;;5070756;28;20423;-68
2021/10/15 05:07:30;;;;;;;1.73;1.27;;;11.80;99.90;;;;;;5070689;28;20901;-68
2021/10/15 05:09:58;;;;;;;1.10;0.63;;;11.80;99.90;;;;;;5070744;28;21019;-68
2021/10/15 05:12:28;;;;;;;3.33;1.63;;;11.90;99.90;;;;;;5070525;28;20876;-68
2021/10/15 05:14:56;;;;;;;1.97;1.07;;;11.90;99.90;;;;;;5070432;28;20414;-68
2021/10/15 05:17:24;;;;;;;0.90;0.73;;;11.90;99.90;;;;;;5070588;28;20388;-68
2021/10/15 05:19:53;;;;;;;1.60;0.80;;;11.90;99.90;;;;;;5070375;28;20524;-67
2021/10/15 05:22:22;;;;;;;2.17;1.40;;;11.80;99.90;;;;;;5070414;28;20428;-67
2021/10/15 05:24:50;;;;;;;0.90;0.50;;;11.80;99.90;;;;;;5070588;28;20413;-67
2021/10/15 05:27:18;;;;;;;1.50;0.60;;;11.70;99.90;;;;;;5070902;28;20394;-67
2021/10/15 05:29:48;;;;;;;1.57;0.70;;;11.70;99.90;;;;;;5070445;28;20499;-67
2021/10/15 05:32:17;;;;;;;1.03;0.73;;;11.70;99.90;;;;;;5051909;28;20425;-67
2021/10/15 05:34:46;;;;;;;1.93;1.27;;;11.60;99.90;;;;;;5070172;28;20414;-68
2021/10/15 05:37:14;;;;;;;1.97;1.20;;;11.60;99.90;;;;;;5071512;28;20414;-68
2021/10/15 05:39:45;;;;;;;1.00;0.83;;;11.60;99.90;;;;;;5072772;28;20512;-68
2021/10/15 05:42:13;;;;;;;0.80;0.50;;;11.60;99.90;;;;;;5073426;28;20808;-67
2021/10/15 05:44:41;;;;;;;1.10;0.83;;;11.70;99.90;;;;;;5073749;28;20445;-68
2021/10/15 05:47:10;;;;;;;3.53;1.67;;;11.80;99.90;;;;;;5074285;28;20715;-67
2021/10/15 05:49:40;;;;;;;1.00;0.83;;;11.80;99.90;;;;;;5074084;28;20839;-67
2021/10/15 05:52:10;;;;;;;1.07;0.73;;;11.90;99.90;;;;;;5073597;28;20507;-67
2021/10/15 05:54:46;;;;;;;0.90;0.70;;;11.90;99.90;;;;;;5073961;28;20458;-67
2021/10/15 05:57:28;;;;;;;2.20;2.00;;;11.90;99.90;;;;;;5074240;28;20406;-68
2021/10/15 05:59:55;;;;;;;2.13;1.70;;;12.00;99.90;;;;;;5073864;28;20462;-68
2021/10/15 06:02:24;;;;;;;0.80;0.50;;;11.90;99.90;;;;;;5073821;28;20769;-67
2021/10/15 06:05:34;;;;;;;1.17;0.83;;;12.00;99.90;;;;;;5073653;28;20920;-70
2021/10/15 06:16:22;;;;;;;1.67;1.43;;;12.10;99.90;;;;;;5072872;28;20961;-68
2021/10/15 06:18:57;;;;;;;1.70;1.37;;;12.10;99.90;;;;;;5073669;28;20514;-68
2021/10/15 06:21:28;;;;;;;1.10;0.87;;;12.10;99.90;;;;;;5073637;28;20519;-68
2021/10/15 06:23:56;;;;;;;1.90;0.90;;;12.10;99.90;;;;;;5073307;28;20517;-68
2021/10/15 06:26:24;;;;;;;1.23;1.13;;;12.10;99.90;;;;;;5073215;28;20543;-68
2021/10/15 06:28:54;;;;;;;1.58;1.35;;;12.20;99.90;;;;;;5072938;28;20408;-68
2021/10/15 06:31:22;;;;;;;1.10;1.00;;;12.20;99.90;;;;;;5052082;28;20216;-68
2021/10/15 06:33:51;;;;;;;1.50;0.90;;;12.20;99.90;;;;;;5066498;28;20836;-67
2021/10/15 06:36:19;;;;;;;0.93;0.70;;;12.30;99.90;;;;;;5073222;28;20389;-68
2021/10/15 06:38:47;;;;;;;1.03;0.77;;;12.40;99.90;;;;;;5073167;28;20422;-67
2021/10/15 06:41:15;;;;;;;1.47;1.27;;;12.40;99.90;;;;;;5072861;28;20436;-67
2021/10/15 06:43:44;;;;;;;0.90;0.70;;;12.40;99.90;;;;;;5072707;28;20452;-67
2021/10/15 06:46:14;;;;;;;0.90;0.70;;;12.40;99.90;;;;;;5055176;28;20405;-67
2021/10/15 06:48:42;;;;;;;2.13;2.00;;;12.40;99.90;;;;;;5072135;28;20442;-67
2021/10/15 06:51:10;;;;;;;0.90;0.80;;;12.40;99.90;;;;;;5072827;28;20422;-68
2021/10/15 06:53:38;;;;;;;0.90;0.67;;;12.50;99.90;;;;;;5072684;28;20405;-68
2021/10/15 06:56:06;;;;;;;0.90;0.80;;;12.50;99.90;;;;;;5072783;28;20933;-68
2021/10/15 06:58:34;;;;;;;1.30;0.80;;;12.60;99.90;;;;;;5072803;28;20397;-67
2021/10/15 07:01:03;;;;;;;1.10;0.70;;;12.50;99.90;;;;;;5072154;28;20466;-67
2021/10/15 07:03:32;;;;;;;0.87;0.50;;;12.50;99.90;;;;;;5071546;28;20430;-68
2021/10/15 07:06:01;;;;;;;1.80;1.47;;;12.50;99.90;;;;;;5071671;28;20430;-68
2021/10/15 07:08:29;;;;;;;0.90;0.80;;;12.50;99.90;;;;;;5071634;28;20759;-68
2021/10/15 07:10:57;;;;;;;0.90;0.60;;;12.60;99.90;;;;;;5071594;28;20436;-68
2021/10/15 07:13:26;;;;;;;1.00;0.70;;;12.60;99.90;;;;;;5071697;28;20419;-69
2021/10/15 07:15:54;;;;;;;1.70;0.93;;;12.60;99.90;;;;;;5071967;28;20530;-68
2021/10/15 07:18:22;;;;;;;1.63;1.50;;;12.60;99.90;;;;;;5049377;28;20413;-68
2021/10/15 07:20:52;;;;;;;1.70;1.10;;;12.60;99.90;;;;;;5071343;28;20448;-67
2021/10/15 07:23:20;;;;;;;1.00;0.70;;;12.60;99.90;;;;;;5070908;28;20459;-68
2021/10/15 07:25:48;;;;;;;1.40;0.70;;;12.70;99.90;;;;;;5071433;28;20419;-67
2021/10/15 07:28:17;;;;;;;1.40;0.87;;;12.70;99.90;;;;;;5071175;28;20421;-67
2021/10/15 07:30:47;;;;;;;0.80;0.50;;;12.70;99.90;;;;;;5070707;28;20393;-66
2021/10/15 07:33:15;;;;;;;4.93;1.17;;;12.70;99.90;;;;;;5070215;28;20421;-67
2021/10/15 07:35:43;;;;;;;0.80;0.50;;;12.70;99.90;;;;;;5070798;28;20440;-67
2021/10/15 07:38:12;;;;;;;1.37;0.63;;;12.80;99.90;;;;;;5070775;28;20474;-67
2021/10/15 07:40:41;;;;;;;1.00;0.90;;;12.80;99.90;;;;;;5070732;28;20816;-68
2021/10/15 07:43:09;;;;;;;1.07;0.80;;;12.80;99.90;;;;;;5070436;28;20439;-67
2021/10/15 07:45:38;;;;;;;1.10;0.60;;;12.90;99.90;;;;;;5071294;28;20401;-69
2021/10/15 07:48:06;;;;;;;0.87;0.50;;;13.00;99.90;;;;;;5071824;28;20401;-67
2021/10/15 07:50:34;;;;;;;1.37;0.97;;;13.10;99.90;;;;;;5071526;28;20419;-67
2021/10/15 07:53:02;;;;;;;0.90;0.70;;;13.20;99.90;;;;;;5071767;28;20937;-68
2021/10/15 07:55:32;;;;;;;1.40;0.73;;;13.20;99.90;;;;;;5071608;28;20577;-68
2021/10/15 07:58:00;;;;;;;1.10;0.80;;;13.20;99.90;;;;;;5071609;28;20775;-68
2021/10/15 08:00:28;;;;;;;0.90;0.50;;;13.20;99.90;;;;;;5071356;28;20386;-68
2021/10/15 08:02:56;;;;;;;0.90;0.60;;;13.30;99.90;;;;;;5070618;28;20478;-68
2021/10/15 08:05:25;;;;;;;0.87;0.60;;;13.40;99.90;;;;;;5070542;28;20396;-68
2021/10/15 08:07:53;;;;;;;2.00;1.80;;;13.50;99.90;;;;;;5071750;28;20746;-67
2021/10/15 08:10:21;;;;;;;0.93;0.83;;;13.50;99.90;;;;;;5071375;28;20401;-68
2021/10/15 08:12:51;;;;;;;1.70;1.60;;;13.50;99.90;;;;;;5071366;28;20735;-67
2021/10/15 08:15:21;;;;;;;2.40;0.97;;;13.60;99.90;;;;;;5071548;28;20396;-68
2021/10/15 08:17:49;;;;;;;1.37;0.93;;;13.60;99.90;;;;;;5071895;28;20426;-68
2021/10/15 08:20:19;;;;;;;0.80;0.50;;;13.70;99.90;;;;;;5054636;28;20961;-67
2021/10/15 08:22:48;;;;;;;0.80;0.50;;;13.60;99.90;;;;;;5073245;28;20448;-68
2021/10/15 08:25:26;;;;;;;1.07;0.83;;;13.70;99.90;;;;;;5070736;28;20457;-67
2021/10/15 08:27:57;;;;;;;1.80;0.93;;;13.60;99.90;;;;;;5071517;28;20783;-68
2021/10/15 08:30:26;;;;;;;1.50;0.97;;;13.50;99.90;;;;;;5070977;28;20480;-68
2021/10/15 08:32:55;;;;;;;0.87;0.53;;;13.50;99.90;;;;;;5070953;28;20450;-68
2021/10/15 08:35:24;;;;;;;1.27;0.80;;;13.50;99.90;;;;;;5071770;28;20407;-67
2021/10/15 08:37:53;;;;;;;0.90;0.50;;;13.60;99.90;;;;;;5071295;28;20437;-67
2021/10/15 08:40:22;;;;;;;0.90;0.53;;;13.70;99.90;;;;;;5071233;28;20442;-70
2021/10/15 08:42:52;;;;;;;0.90;0.67;;;13.90;99.90;;;;;;5070107;28;20470;-67
2021/10/15 08:45:25;;;;;;;0.90;0.60;;;14.00;99.90;;;;;;5070248;28;20422;-66
2021/10/15 08:47:54;;;;;;;0.90;0.50;;;14.10;99.90;;;;;;5071033;28;20925;-68
2021/10/15 08:50:40;;;;;;;1.40;0.60;;;14.10;99.90;;;;;;5071226;28;20801;-68
2021/10/15 08:53:08;;;;;;;0.90;0.50;;;14.10;99.90;;;;;;5071079;28;20439;-67
2021/10/15 08:55:36;;;;;;;1.20;0.90;;;14.20;99.90;;;;;;5071661;28;20450;-68
2021/10/15 08:58:05;;;;;;;1.20;0.80;;;14.00;99.90;;;;;;5069839;28;20475;-68
2021/10/15 09:00:36;;;;;;;1.10;0.83;;;14.10;99.90;;;;;;5053193;28;20942;-69
2021/10/15 09:03:14;;;;;;;0.80;0.50;;;14.00;99.90;;;;;;5071547;28;20531;-67
2021/10/15 09:05:53;;;;;;;4.10;1.90;;;14.00;99.90;;;;;;5072650;28;20748;-67
2021/10/15 09:08:22;;;;;;;1.20;0.93;;;13.90;99.90;;;;;;5072771;28;20400;-69
2021/10/15 09:10:50;;;;;;;1.50;0.63;;;13.80;99.90;;;;;;5073913;28;20434;-68
2021/10/15 09:13:21;;;;;;;0.93;0.67;;;13.80;99.90;;;;;;5077076;28;20925;-67
2021/10/15 09:15:52;;;;;;;0.90;0.60;;;13.80;99.90;;;;;;5060636;28;20990;-67
2021/10/15 09:18:29;;;;;;;2.50;1.33;;;13.80;99.90;;;;;;5075544;28;20448;-67
2021/10/15 09:20:58;;;;;;;1.10;0.80;;;13.80;99.90;;;;;;5075288;28;20424;-68
2021/10/15 09:23:45;;;;;;;1.93;1.07;;;13.80;99.90;;;;;;5056743;28;20450;-69
2021/10/15 09:26:13;;;;;;;0.80;0.40;;;13.90;99.90;;;;;;5075220;28;20418;-69
2021/10/15 09:28:43;;;;;;;1.20;0.50;;;13.90;99.90;;;;;;5075104;28;20426;-68
2021/10/15 09:31:14;;;;;;;1.30;1.00;;;14.10;99.90;;;;;;5074991;28;21023;-68
2021/10/15 09:33:53;;;;;;;1.03;0.50;;;14.20;99.90;;;;;;5074545;28;20447;-69
2021/10/15 09:36:21;;;;;;;0.87;0.57;;;14.40;99.90;;;;;;5075077;28;20397;-68
2021/10/15 09:38:51;;;;;;;1.10;0.83;;;14.60;99.90;;;;;;5074916;28;20456;-68
2021/10/15 09:41:39;;;;;;;3.20;1.10;;;14.60;99.90;;;;;;5074470;28;20438;-68
2021/10/15 09:44:29;;;;;;;0.90;0.50;;;14.50;99.90;;;;;;5074667;28;20425;-68
2021/10/15 09:47:17;;;;;;;0.90;0.60;;;14.40;99.90;;;;;;5075405;28;20425;-67
2021/10/15 09:49:57;;;;;;;1.00;0.60;;;14.30;99.90;;;;;;5055134;28;20506;-68
2021/10/15 09:52:38;;;;;;;1.70;1.60;;;14.30;99.90;;;;;;5054222;28;20447;-67
2021/10/15 09:55:14;;;;;;;1.50;1.13;;;14.10;99.90;;;;;;5054481;28;20758;-67
2021/10/15 09:57:44;;;;;;;1.63;1.53;;;14.10;99.90;;;;;;5054276;28;20409;-68
2021/10/15 10:00:14;;;;;;;0.90;0.50;;;14.10;99.90;;;;;;5054312;28;20804;-67
2021/10/15 10:02:44;;;;;;;0.90;0.50;;;14.10;99.90;;;;;;5059739;28;20988;-68
2021/10/15 10:05:15;;;;;;;0.90;0.50;;;14.00;99.90;;;;;;5074853;28;20414;-66
2021/10/15 10:07:44;;;;;;;0.90;0.50;;;14.00;99.90;;;;;;5056462;28;20504;-69
2021/10/15 10:10:15;;;;;;;0.83;0.50;;;14.10;99.90;;;;;;5074253;28;20500;-68
2021/10/15 10:12:44;;;;;;;0.93;0.50;;;14.10;99.90;;;;;;5074068;28;20466;-69
2021/10/15 10:15:15;;;;;;;1.10;0.73;;;14.20;99.90;;;;;;5074257;28;20403;-69
2021/10/15 10:17:50;;;;;;;1.00;0.83;;;14.30;99.90;;;;;;5073659;28;20420;-69
2021/10/15 10:20:27;;;;;;;0.80;0.50;;;14.40;99.90;;;;;;5074238;28;20396;-67
2021/10/15 10:23:04;;;;;;;0.93;0.50;;;14.50;99.90;;;;;;5073159;28;20481;-67
2021/10/15 10:25:34;;;;;;;1.50;1.03;;;14.60;99.90;;;;;;5074020;28;20424;-69
2021/10/15 10:28:17;;;;;;;1.20;0.80;;;14.70;99.90;;;;;;5073719;28;20899;-67
2021/10/15 10:30:49;;;;;;;1.30;1.17;;;14.50;99.90;;;;;;5073618;28;20418;-68
2021/10/15 10:33:20;;;;;;;1.00;0.70;;;14.30;99.90;;;;;;5072859;28;20989;-68
2021/10/15 10:35:50;;;;;;;1.00;0.50;;;14.20;99.90;;;;;;5073504;28;20405;-68
2021/10/15 10:38:31;;;;;;;0.80;0.50;;;14.00;99.90;;;;;;5073465;28;20426;-69
2021/10/15 10:41:13;;;;;;;0.87;0.50;;;13.90;99.90;;;;;;5073372;28;20799;-66
2021/10/15 10:44:22;;;;;;;1.47;0.60;;;13.70;99.90;;;;;;5073275;28;20778;-66
2021/10/15 10:47:14;;;;;;;1.00;0.60;;;13.60;99.90;;;;;;5073579;28;20453;-69
2021/10/15 10:50:15;;;;;;;1.40;0.77;;;13.40;99.90;;;;;;5073494;28;20931;-68
2021/10/15 10:53:08;;;;;;;1.50;0.80;;;13.40;99.90;;;;;;5043646;28;20425;-68
2021/10/15 10:55:43;;;;;;;1.43;0.73;;;13.10;99.90;;;;;;5069125;28;20442;-69
2021/10/15 10:58:31;;;;;;;0.80;0.50;;;13.00;99.90;;;;;;5073430;28;20554;-69
2021/10/15 11:01:25;;;;;;;0.80;0.50;;;12.90;99.90;;;;;;5072885;28;20462;-68
2021/10/15 11:03:55;;;;;;;0.90;0.60;;;12.90;99.90;;;;;;5064818;28;20505;-67
2021/10/15 11:06:45;;;;;;;1.00;0.60;;;12.80;99.90;;;;;;5072695;28;20471;-67
2021/10/15 11:09:29;;;;;;;0.93;0.60;;;12.80;99.90;;;;;;5073130;28;20408;-68
2021/10/15 11:11:57;;;;;;;1.27;0.60;;;12.70;99.90;;;;;;5072931;28;20945;-68
2021/10/15 11:14:51;;;;;;;0.80;0.50;;;12.60;99.90;;;;;;5072222;28;20790;-69
2021/10/15 11:17:25;;;;;;;1.00;0.60;;;12.60;99.90;;;;;;5072396;28;20442;-69
2021/10/15 11:20:18;;;;;;;1.23;0.90;;;12.50;99.90;;;;;;5072252;28;21052;-67
2021/10/15 11:22:55;;;;;;;0.80;0.60;;;12.50;99.90;;;;;;5071773;28;20476;-68
2021/10/15 11:25:25;;;;;;;1.00;0.80;;;12.50;99.90;;;;;;5071967;28;20389;-68
2021/10/15 11:27:56;;;;;;;0.90;0.60;;;12.40;99.90;;;;;;5072607;28;21015;-69
2021/10/15 11:30:26;;;;;;;1.10;0.60;;;12.30;99.90;;;;;;5072227;28;20406;-68
2021/10/15 11:32:56;;;;;;;0.83;0.60;;;12.30;99.90;;;;;;5072006;28;20542;-68
2021/10/15 11:35:28;;;;;;;1.17;0.70;;;12.20;99.90;;;;;;5071708;28;20374;-67
2021/10/15 11:38:04;;;;;;;1.20;0.50;;;12.30;99.90;;;;;;5072848;28;20396;-67
2021/10/15 11:40:35;;;;;;;1.13;0.80;;;12.30;99.90;;;;;;5072100;28;20446;-68
2021/10/15 11:43:10;;;;;;;0.80;0.50;;;12.20;99.90;;;;;;5071927;28;20829;-69
2021/10/15 11:45:41;;;;;;;2.10;1.00;;;12.10;99.90;;;;;;5072076;28;20418;-68
2021/10/15 11:48:11;;;;;;;0.90;0.50;;;12.00;99.90;;;;;;5072083;28;20454;-68
2021/10/15 11:50:46;;;;;;;0.90;0.60;;;12.00;99.90;;;;;;5072254;28;20955;-68
2021/10/15 11:53:18;;;;;;;1.00;0.60;;;12.10;99.90;;;;;;5072005;28;20431;-69
2021/10/15 11:55:47;;;;;;;1.20;0.83;;;12.00;99.90;;;;;;5071848;28;20426;-68
2021/10/15 11:58:40;;;;;;;1.27;1.17;;;11.80;99.90;;;;;;5071792;28;20834;-69
2021/10/15 12:01:11;;;;;;;0.90;0.60;;;11.80;99.90;;;;;;5035511;28;20485;-68
2021/10/15 12:03:40;;;;;;;0.80;0.50;;;11.70;99.90;;;;;;5071294;28;20461;-68
2021/10/15 12:06:25;;;;;;;1.20;0.87;;;11.50;99.90;;;;;;5071551;28;20400;-67
2021/10/15 12:08:58;;;;;;;1.20;0.70;;;11.30;99.90;;;;;;5071658;28;20525;-68
2021/10/15 12:11:42;;;;;;;0.83;0.50;;;11.20;99.90;;;;;;5071447;28;21208;-67
2021/10/15 12:14:12;;;;;;;0.80;0.50;;;11.10;99.90;;;;;;5071225;28;20978;-68
2021/10/15 12:16:52;;;;;;;0.90;0.50;;;11.10;99.90;;;;;;5071326;28;20509;-68
2021/10/15 12:19:26;;;;;;;0.80;0.50;;;11.00;99.90;;;;;;5071364;28;20426;-69
2021/10/15 12:22:04;;;;;;;1.10;0.50;;;11.00;99.90;;;;;;5071093;28;20474;-68
2021/10/15 12:24:35;;;;;;;0.90;0.60;;;11.00;99.90;;;;;;5071083;28;20478;-67
2021/10/15 12:27:15;;;;;;;0.80;0.50;;;10.90;99.90;;;;;;5071162;28;20401;-68
2021/10/15 12:29:45;;;;;;;4.90;1.37;;;10.90;99.90;;;;;;5071177;28;20868;-67
2021/10/15 12:32:19;;;;;;;0.90;0.50;;;10.90;99.90;;;;;;5070948;28;20930;-66
2021/10/15 12:34:57;;;;;;;0.90;0.80;;;11.00;99.90;;;;;;5071167;28;20454;-68
2021/10/15 12:37:30;;;;;;;1.10;0.70;;;11.10;99.90;;;;;;5071101;28;20475;-68
2021/10/15 12:40:15;;;;;;;0.80;0.50;;;11.20;99.90;;;;;;5071009;28;20436;-68
2021/10/15 12:42:45;;;;;;;0.80;0.50;;;11.10;99.90;;;;;;5070974;28;20442;-67
2021/10/15 12:45:15;;;;;;;1.67;0.60;;;11.20;99.90;;;;;;5071130;28;20393;-68
2021/10/15 12:47:56;;;;;;;0.80;0.50;;;11.20;99.90;;;;;;5070892;28;20397;-69
2021/10/15 12:50:25;;;;;;;0.80;0.40;;;11.00;99.90;;;;;;5071359;28;20511;-68
2021/10/15 12:52:53;;;;;;;0.80;0.50;;;11.00;99.90;;;;;;5070968;28;20428;-67
2021/10/15 12:55:25;;;;;;;1.00;0.70;;;11.00;99.90;;;;;;5071323;28;20748;-68
2021/10/15 12:58:03;;;;;;;0.80;0.40;;;10.90;99.90;;;;;;5071243;28;20524;-68
2021/10/15 13:00:32;;;;;;;0.80;0.50;;;10.90;99.90;;;;;;5053704;28;20484;-68
2021/10/15 13:03:02;;;;;;;1.57;0.63;;;10.90;99.90;;;;;;5071288;28;20815;-68
2021/10/15 13:05:32;;;;;;;0.80;0.40;;;10.80;99.90;;;;;;5070957;28;20532;-68
2021/10/15 13:08:00;;;;;;;1.40;1.17;;;10.70;99.90;;;;;;5070144;28;20480;-63
2021/10/15 13:10:31;;;;;;;0.80;0.53;;;10.70;99.90;;;;;;5069215;28;20430;-68
2021/10/15 13:12:59;;;;;;;0.80;0.50;;;10.70;99.90;;;;;;5069704;28;20526;-69
2021/10/15 13:15:30;;;;;;;0.80;0.50;;;10.60;99.90;;;;;;5070209;28;20441;-67